Time;durP1;ratioP1;P1;durP2;ratioP2;P2;SDS_P1;SDS_P2;PMS_P1;PMS_P2;Temp;Humidity;BMP_temperature;BMP_pressure;BME280_temperature;BME280_humidity;BME280_pressure;Samples;Min_cycle;Max_cycle;Signal;HPM_P1;HPM_P2
2021/09/03 00:00:26;;;;;;;9.55;6.43;;;;;;;11.73;100.00;96406.69;5030710;28;20415;-76
2021/09/03 00:02:53;;;;;;;8.97;6.03;;;;;;;11.69;100.00;96400.00;5029383;28;20459;-76
2021/09/03 00:05:20;;;;;;;8.07;6.57;;;;;;;11.67;100.00;96410.47;5030537;28;20517;-76
2021/09/03 00:07:47;;;;;;;7.90;6.43;;;;;;;11.72;100.00;96405.84;5030628;28;20427;-76
2021/09/03 00:10:15;;;;;;;8.57;6.15;;;;;;;11.74;100.00;96404.00;5030680;28;20513;-76
2021/09/03 00:12:41;;;;;;;9.23;6.05;;;;;;;11.72;100.00;96395.47;5029376;28;20422;-76
2021/09/03 00:15:10;;;;;;;7.13;6.45;;;;;;;11.69;100.00;96395.66;5029247;28;20501;-76
2021/09/03 00:17:35;;;;;;;7.07;5.88;;;;;;;11.74;100.00;96398.81;5029183;28;21129;-76
2021/09/03 00:20:03;;;;;;;7.75;6.50;;;;;;;11.74;100.00;96396.22;5030600;28;20455;-76
2021/09/03 00:22:28;;;;;;;6.40;5.70;;;;;;;11.79;99.38;96393.34;5030927;28;20419;-76
2021/09/03 00:24:54;;;;;;;6.43;5.57;;;;;;;11.68;100.00;96386.19;5030521;28;20905;-75
2021/09/03 00:27:19;;;;;;;9.17;6.73;;;;;;;11.64;100.00;96382.09;5029025;28;20514;-76
2021/09/03 00:29:44;;;;;;;7.97;5.87;;;;;;;11.62;100.00;96383.94;5030375;28;20928;-76
2021/09/03 00:32:10;;;;;;;6.17;5.40;;;;;;;11.57;100.00;96381.63;5029189;28;20426;-76
2021/09/03 00:34:35;;;;;;;7.20;5.65;;;;;;;11.54;100.00;96376.59;5029254;28;20423;-76
2021/09/03 00:37:03;;;;;;;8.45;5.88;;;;;;;11.57;100.00;96371.25;5030402;28;20913;-76
2021/09/03 00:39:28;;;;;;;6.40;5.80;;;;;;;11.59;100.00;96378.94;5029158;28;20634;-76
2021/09/03 00:41:54;;;;;;;8.20;6.27;;;;;;;11.53;100.00;96372.34;5029189;28;20418;-76
2021/09/03 00:44:19;;;;;;;6.43;5.40;;;;;;;11.51;100.00;96373.34;5030656;28;20415;-76
2021/09/03 00:46:45;;;;;;;8.82;5.80;;;;;;;11.45;100.00;96371.91;5030112;28;20786;-76
2021/09/03 00:49:10;;;;;;;7.20;5.28;;;;;;;11.48;100.00;96368.31;5030240;28;20474;-76
2021/09/03 00:51:36;;;;;;;7.47;5.53;;;;;;;11.49;100.00;96367.41;5030336;28;20469;-76
2021/09/03 00:54:03;;;;;;;9.20;5.70;;;;;;;11.48;100.00;96374.34;5032321;28;20488;-76
2021/09/03 00:56:29;;;;;;;8.73;5.60;;;;;;;11.46;100.00;96370.16;5033810;28;20863;-76
2021/09/03 00:58:54;;;;;;;5.70;5.20;;;;;;;11.47;100.00;96367.50;5033905;28;20501;-77
2021/09/03 01:01:21;;;;;;;7.23;5.30;;;;;;;11.43;100.00;96367.75;5033867;28;20426;-76
2021/09/03 01:03:46;;;;;;;7.72;5.72;;;;;;;11.37;100.00;96367.16;5033929;28;20415;-76
2021/09/03 01:06:12;;;;;;;6.10;5.13;;;;;;;11.39;99.16;96364.50;5032402;28;20770;-76
2021/09/03 01:08:38;;;;;;;6.10;5.27;;;;;;;11.24;100.00;96367.97;5033651;28;20943;-75
2021/09/03 01:11:04;;;;;;;6.73;5.53;;;;;;;11.15;100.00;96364.94;5032441;28;20411;-76
2021/09/03 01:13:30;;;;;;;6.27;5.20;;;;;;;11.14;100.00;96370.22;5033698;28;20419;-76
2021/09/03 01:15:56;;;;;;;7.23;5.30;;;;;;;11.12;100.00;96369.47;5033432;28;20501;-76
2021/09/03 01:18:21;;;;;;;7.10;5.50;;;;;;;11.10;100.00;96371.31;5033610;28;20507;-76
2021/09/03 01:20:46;;;;;;;8.10;5.23;;;;;;;11.08;100.00;96370.56;5034167;28;20477;-76
2021/09/03 01:23:14;;;;;;;5.53;5.03;;;;;;;11.08;100.00;96371.38;5032249;28;20451;-76
2021/09/03 01:25:39;;;;;;;7.07;5.50;;;;;;;11.09;100.00;96364.47;5032108;28;20423;-75
2021/09/03 01:28:05;;;;;;;6.90;5.70;;;;;;;11.06;100.00;96359.44;5032167;28;20778;-76
2021/09/03 01:30:30;;;;;;;7.13;5.30;;;;;;;11.25;98.31;96365.28;5032033;28;21015;-76
2021/09/03 01:32:55;;;;;;;5.77;5.17;;;;;;;11.10;100.00;96358.34;5032609;28;20431;-76
2021/09/03 01:35:21;;;;;;;6.73;5.63;;;;;;;10.92;100.00;96359.38;5035544;28;20423;-76
2021/09/03 01:37:46;;;;;;;7.60;5.00;;;;;;;10.82;99.99;96353.84;5036758;28;20458;-75
2021/09/03 01:40:13;;;;;;;10.65;5.03;;;;;;;10.85;95.90;96354.50;5037374;28;20434;-76
2021/09/03 01:42:39;;;;;;;5.43;4.72;;;;;;;10.72;95.38;96350.09;5036482;28;20418;-75
2021/09/03 01:45:05;;;;;;;5.25;4.68;;;;;;;10.53;98.29;96351.09;5032183;28;20485;-76
2021/09/03 01:47:30;;;;;;;7.53;5.73;;;;;;;10.54;98.76;96350.16;5033110;28;20419;-75
2021/09/03 01:49:56;;;;;;;4.75;4.35;;;;;;;10.52;100.00;96349.38;5031732;28;20460;-75
2021/09/03 01:52:22;;;;;;;5.27;4.77;;;;;;;10.50;100.00;96347.81;5033118;28;20403;-76
2021/09/03 01:54:47;;;;;;;5.30;4.80;;;;;;;10.51;100.00;96347.72;5033020;28;20442;-76
2021/09/03 01:57:14;;;;;;;6.82;4.80;;;;;;;10.47;100.00;96356.56;5032798;28;20423;-76
2021/09/03 01:59:40;;;;;;;7.70;5.18;;;;;;;10.40;100.00;96356.06;5032752;28;20419;-76
2021/09/03 02:02:05;;;;;;;8.90;5.27;;;;;;;10.40;100.00;96344.88;5031517;28;20426;-76
2021/09/03 02:04:31;;;;;;;6.90;5.00;;;;;;;10.45;100.00;96349.78;5031153;28;20931;-76
2021/09/03 02:06:56;;;;;;;5.97;5.37;;;;;;;10.51;100.00;96342.53;5030906;28;20866;-75
2021/09/03 02:09:22;;;;;;;5.93;5.18;;;;;;;10.50;100.00;96335.69;5031351;28;20426;-76
2021/09/03 02:11:48;;;;;;;5.38;4.85;;;;;;;10.47;100.00;96338.44;5031362;28;20422;-76
2021/09/03 02:14:14;;;;;;;6.10;5.38;;;;;;;10.46;100.00;96336.78;5032589;28;20419;-76
2021/09/03 02:16:40;;;;;;;7.25;5.50;;;;;;;10.50;100.00;96330.53;5031135;28;20477;-76
2021/09/03 02:19:05;;;;;;;5.03;4.53;;;;;;;10.53;98.83;96326.91;5032489;28;20419;-76
2021/09/03 02:21:31;;;;;;;6.05;4.80;;;;;;;10.43;97.19;96336.94;5031400;28;20502;-76
2021/09/03 02:23:57;;;;;;;5.57;4.70;;;;;;;10.28;98.75;96336.00;5031064;28;20438;-76
2021/09/03 02:26:22;;;;;;;6.27;4.63;;;;;;;10.17;99.96;96331.34;5032129;28;20415;-76
2021/09/03 02:28:48;;;;;;;6.47;4.90;;;;;;;10.17;100.00;96327.94;5032019;28;20423;-76
2021/09/03 02:31:14;;;;;;;6.15;5.03;;;;;;;10.28;98.96;96323.06;5032324;28;20411;-76
2021/09/03 02:33:40;;;;;;;6.10;4.80;;;;;;;10.20;99.05;96325.19;5031028;28;20536;-76
2021/09/03 02:36:06;;;;;;;8.17;5.67;;;;;;;10.12;100.00;96324.72;5031855;28;20863;-76
2021/09/03 02:38:31;;;;;;;12.33;5.50;;;;;;;10.11;100.00;96320.47;5031963;28;20503;-76
2021/09/03 02:40:57;;;;;;;9.30;5.40;;;;;;;10.08;100.00;96323.22;5030805;28;20442;-76
2021/09/03 02:43:22;;;;;;;6.13;5.50;;;;;;;10.09;100.00;96325.75;5031150;28;20484;-76
2021/09/03 02:45:48;;;;;;;5.60;5.00;;;;;;;10.16;99.57;96319.34;5031817;28;20458;-76
2021/09/03 02:48:14;;;;;;;6.20;5.05;;;;;;;10.15;98.69;96324.56;5031788;28;20450;-76
2021/09/03 02:50:40;;;;;;;6.00;5.05;;;;;;;10.13;98.82;96314.31;5031838;28;20507;-76
2021/09/03 02:53:05;;;;;;;7.13;4.60;;;;;;;10.08;100.00;96318.88;5031890;28;20514;-77
2021/09/03 02:55:31;;;;;;;7.53;5.50;;;;;;;10.03;100.00;96313.09;5030304;28;20480;-76
2021/09/03 02:57:57;;;;;;;7.32;5.70;;;;;;;9.97;100.00;96302.22;5031624;28;20506;-76
2021/09/03 03:00:23;;;;;;;6.50;5.18;;;;;;;10.00;99.95;96304.66;5031645;28;20476;-76
2021/09/03 03:02:48;;;;;;;9.60;5.67;;;;;;;10.07;98.75;96308.59;5031638;28;20415;-77
2021/09/03 03:05:15;;;;;;;7.07;5.37;;;;;;;9.85;100.00;96304.53;5031406;28;20885;-77
2021/09/03 03:07:40;;;;;;;6.95;4.93;;;;;;;9.79;100.00;96301.41;5031395;28;20986;-76
2021/09/03 03:10:07;;;;;;;6.68;5.32;;;;;;;9.78;100.00;96300.59;5031534;28;20419;-76
2021/09/03 03:12:33;;;;;;;5.53;5.03;;;;;;;9.80;100.00;96306.53;5031320;28;20422;-76
2021/09/03 03:14:58;;;;;;;7.55;5.20;;;;;;;9.85;100.00;96301.94;5030069;28;20423;-76
2021/09/03 03:17:24;;;;;;;5.90;5.30;;;;;;;9.89;100.00;96297.47;5029897;28;20446;-77
2021/09/03 03:19:50;;;;;;;6.10;5.13;;;;;;;9.96;100.00;96296.22;5030100;28;20430;-77
2021/09/03 03:22:16;;;;;;;6.47;4.90;;;;;;;10.03;99.83;96294.16;5031384;28;20423;-76
2021/09/03 03:24:42;;;;;;;6.13;5.22;;;;;;;9.98;100.00;96299.59;5031304;28;20472;-76
2021/09/03 03:27:08;;;;;;;5.40;4.90;;;;;;;9.94;100.00;96293.72;5029745;28;20423;-76
2021/09/03 03:29:33;;;;;;;4.77;4.33;;;;;;;9.85;98.90;96307.13;5031080;28;20512;-76
2021/09/03 03:31:59;;;;;;;5.40;4.87;;;;;;;9.77;100.00;96300.69;5029862;28;20805;-77
2021/09/03 03:34:24;;;;;;;5.60;4.93;;;;;;;9.80;100.00;96291.00;5031186;28;20419;-76
2021/09/03 03:36:50;;;;;;;6.43;4.87;;;;;;;9.80;100.00;96295.34;5030904;28;20449;-76
2021/09/03 03:39:16;;;;;;;5.37;4.80;;;;;;;9.84;100.00;96302.03;5030941;28;20469;-76
2021/09/03 03:41:42;;;;;;;4.53;4.13;;;;;;;9.83;100.00;96290.03;5030961;28;20419;-76
2021/09/03 03:44:07;;;;;;;5.43;4.53;;;;;;;9.81;100.00;96291.84;5029697;28;20415;-77
2021/09/03 03:46:33;;;;;;;4.13;3.73;;;;;;;9.79;100.00;96291.94;5029494;28;20423;-76
2021/09/03 03:48:58;;;;;;;4.17;3.70;;;;;;;9.87;100.00;96294.13;5030740;28;20434;-76
2021/09/03 03:51:24;;;;;;;7.40;4.57;;;;;;;10.01;96.19;96290.81;5030908;28;20414;-76
2021/09/03 03:53:49;;;;;;;6.68;5.18;;;;;;;10.00;95.71;96283.97;5029653;28;20418;-76
2021/09/03 03:56:17;;;;;;;7.47;4.95;;;;;;;9.88;95.60;96288.88;5030648;28;20446;-76
2021/09/03 03:58:43;;;;;;;5.85;5.07;;;;;;;9.64;99.22;96292.69;5030710;28;20423;-76
2021/09/03 04:01:08;;;;;;;5.47;4.95;;;;;;;9.50;95.66;96296.00;5029562;28;20489;-76
2021/09/03 04:03:34;;;;;;;6.97;4.60;;;;;;;9.33;96.58;96289.06;5029548;28;20419;-77
2021/09/03 04:05:59;;;;;;;5.57;5.07;;;;;;;9.42;96.13;96290.38;5029304;28;20430;-76
2021/09/03 04:08:24;;;;;;;5.53;4.88;;;;;;;9.40;98.06;96293.03;5030647;28;21177;-76
2021/09/03 04:10:50;;;;;;;5.35;4.22;;;;;;;9.21;99.40;96284.50;5030720;28;20423;-76
2021/09/03 04:13:17;;;;;;;5.03;4.53;;;;;;;9.00;100.00;96285.56;5030766;28;20418;-76
2021/09/03 04:15:42;;;;;;;6.97;5.22;;;;;;;9.01;100.00;96280.31;5030567;28;20881;-77
2021/09/03 04:18:08;;;;;;;5.65;4.93;;;;;;;9.09;100.00;96277.38;5030739;28;20453;-78
2021/09/03 04:20:33;;;;;;;6.07;4.95;;;;;;;9.19;100.00;96278.56;5030687;28;20488;-76
2021/09/03 04:22:59;;;;;;;6.03;5.10;;;;;;;9.20;100.00;96282.84;5030605;28;20863;-77
2021/09/03 04:25:25;;;;;;;7.28;5.15;;;;;;;9.25;100.00;96286.03;5030652;28;20781;-76
2021/09/03 04:27:50;;;;;;;6.15;5.10;;;;;;;9.25;100.00;96283.44;5030542;28;20927;-77
2021/09/03 04:30:17;;;;;;;5.57;4.80;;;;;;;9.23;100.00;96289.59;5033083;28;20583;-76
2021/09/03 04:32:43;;;;;;;5.20;4.18;;;;;;;9.26;100.00;96298.03;5012851;28;20926;-76
2021/09/03 04:35:09;;;;;;;5.17;3.83;;;;;;;9.24;100.00;96299.03;5009734;28;20507;-76
2021/09/03 04:37:38;;;;;;;13.90;3.42;;;;;;;9.00;100.00;96306.22;5012380;28;20489;-76
2021/09/03 04:40:05;;;;;;;7.78;3.28;;;;;;;8.77;100.00;96300.41;5015682;28;20782;-77
2021/09/03 04:42:30;;;;;;;7.57;3.08;;;;;;;8.52;100.00;96299.88;5017691;28;20435;-77
2021/09/03 04:44:56;;;;;;;3.67;2.77;;;;;;;8.37;100.00;96298.78;5016952;28;20426;-76
2021/09/03 04:47:23;;;;;;;3.13;2.60;;;;;;;8.55;100.00;96299.72;5016062;28;20424;-76
2021/09/03 04:49:48;;;;;;;4.22;3.28;;;;;;;8.72;100.00;96298.03;5010151;28;20507;-75
2021/09/03 04:52:13;;;;;;;5.07;3.27;;;;;;;8.81;100.00;96301.94;5012898;28;21026;-76
2021/09/03 04:54:39;;;;;;;7.38;4.10;;;;;;;8.91;100.00;96298.00;5012983;28;20417;-75
2021/09/03 04:57:04;;;;;;;4.38;3.97;;;;;;;8.98;100.00;96302.88;5012352;28;20428;-76
2021/09/03 04:59:30;;;;;;;4.10;3.70;;;;;;;8.97;100.00;96302.03;5012515;28;20416;-75
2021/09/03 05:01:55;;;;;;;5.10;3.93;;;;;;;8.98;100.00;96295.13;5012679;28;20453;-75
2021/09/03 05:04:22;;;;;;;7.80;3.87;;;;;;;8.98;100.00;96295.13;5011716;28;20428;-76
2021/09/03 05:06:47;;;;;;;5.97;4.30;;;;;;;8.93;100.00;96287.59;5011960;28;20503;-75
2021/09/03 05:09:13;;;;;;;4.63;4.23;;;;;;;8.97;99.72;96291.69;5012422;28;21029;-76
2021/09/03 05:11:38;;;;;;;4.87;3.80;;;;;;;8.98;100.00;96295.13;5012439;28;20427;-75
2021/09/03 05:14:03;;;;;;;5.20;4.57;;;;;;;8.93;100.00;96295.34;5012558;28;20417;-76
2021/09/03 05:16:29;;;;;;;4.77;3.90;;;;;;;8.96;100.00;96287.44;5011312;28;20436;-76
2021/09/03 05:18:54;;;;;;;6.20;4.57;;;;;;;9.08;100.00;96288.59;5012476;28;20971;-75
2021/09/03 05:21:21;;;;;;;6.18;4.63;;;;;;;9.21;100.00;96290.50;5011431;28;20432;-75
2021/09/03 05:23:47;;;;;;;4.95;4.45;;;;;;;9.32;100.00;96286.56;5010990;28;20429;-76
2021/09/03 05:26:12;;;;;;;5.10;4.57;;;;;;;9.47;100.00;96287.56;5012071;28;20471;-75
2021/09/03 05:28:38;;;;;;;4.50;4.07;;;;;;;9.55;100.00;96285.41;5012176;28;20471;-76
2021/09/03 05:31:04;;;;;;;4.88;4.10;;;;;;;9.58;100.00;96296.44;5011163;28;20409;-77
2021/09/03 05:33:29;;;;;;;4.75;3.40;;;;;;;9.52;100.00;96309.66;5013150;28;20427;-76
2021/09/03 05:35:55;;;;;;;8.73;2.90;;;;;;;9.50;100.00;96301.16;5013030;28;20483;-76
2021/09/03 05:38:21;;;;;;;2.97;2.50;;;;;;;9.46;100.00;96310.00;5013356;28;20409;-76
2021/09/03 05:40:47;;;;;;;16.70;2.90;;;;;;;9.16;100.00;96302.00;5012454;28;20435;-76
2021/09/03 05:43:12;;;;;;;2.60;2.33;;;;;;;9.17;100.00;96296.75;5013340;28;20416;-76
2021/09/03 05:45:38;;;;;;;4.60;2.30;;;;;;;9.23;100.00;96294.75;5013173;28;20431;-75
2021/09/03 05:48:04;;;;;;;2.53;2.33;;;;;;;9.28;100.00;96297.97;5012856;28;20487;-75
2021/09/03 05:50:30;;;;;;;2.87;2.40;;;;;;;9.36;100.00;96294.09;5013459;28;20428;-76
2021/09/03 05:52:55;;;;;;;2.67;2.47;;;;;;;9.62;100.00;96307.47;5011945;28;20425;-76
2021/09/03 05:55:22;;;;;;;2.45;2.25;;;;;;;9.82;100.00;96298.69;5013230;28;20926;-76
2021/09/03 05:57:51;;;;;;;2.60;2.40;;;;;;;10.04;100.00;96301.00;5012846;28;20428;-76
2021/09/03 06:00:16;;;;;;;2.57;2.33;;;;;;;10.12;100.00;96299.72;5013069;28;20579;-76
2021/09/03 06:02:42;;;;;;;3.28;2.50;;;;;;;10.28;100.00;96298.91;5012996;28;20429;-76
2021/09/03 06:05:08;;;;;;;3.50;3.07;;;;;;;10.32;100.00;96303.03;5013570;28;20426;-76
2021/09/03 06:07:34;;;;;;;3.60;3.30;;;;;;;10.25;100.00;96297.31;5012855;28;20431;-76
2021/09/03 06:09:59;;;;;;;4.83;3.40;;;;;;;9.99;100.00;96306.41;5011604;28;20420;-77
2021/09/03 06:12:26;;;;;;;4.17;3.77;;;;;;;10.22;100.00;96304.38;5011608;28;20425;-77
2021/09/03 06:14:52;;;;;;;3.80;3.30;;;;;;;10.24;100.00;96300.81;5013055;28;20424;-77
2021/09/03 06:17:17;;;;;;;5.00;2.90;;;;;;;10.52;100.00;96301.94;5010256;28;20428;-77
2021/09/03 06:19:43;;;;;;;5.03;3.77;;;;;;;10.84;100.00;96297.59;5005246;28;20445;-77
2021/09/03 06:22:08;;;;;;;6.47;4.57;;;;;;;11.11;100.00;96301.22;4993193;28;20423;-73
2021/09/03 06:24:35;;;;;;;5.17;4.37;;;;;;;11.41;100.00;96296.97;5003946;28;20425;-76
2021/09/03 06:27:03;;;;;;;5.90;4.68;;;;;;;11.70;100.00;96296.13;5012425;28;20528;-76
2021/09/03 06:29:37;;;;;;;6.18;4.72;;;;;;;11.92;100.00;96287.94;5012268;28;20890;-76
2021/09/03 06:32:03;;;;;;;5.35;4.03;;;;;;;12.19;100.00;96289.78;5012469;28;20436;-75
2021/09/03 06:34:28;;;;;;;6.68;4.80;;;;;;;12.24;100.00;96292.94;5011377;28;20948;-75
2021/09/03 06:36:54;;;;;;;6.53;5.13;;;;;;;12.35;100.00;96293.97;5012048;28;20420;-76
2021/09/03 06:39:19;;;;;;;6.10;5.50;;;;;;;12.61;100.00;96296.72;5012281;28;20413;-75
2021/09/03 06:41:45;;;;;;;7.33;6.00;;;;;;;12.84;100.00;96297.84;5012394;28;20596;-76
2021/09/03 06:44:10;;;;;;;6.60;5.90;;;;;;;12.94;100.00;96298.09;5012375;28;20427;-76
2021/09/03 06:46:37;;;;;;;6.63;5.60;;;;;;;12.95;99.15;96292.81;5010319;28;20424;-77
2021/09/03 06:49:02;;;;;;;8.07;5.28;;;;;;;12.65;97.34;96292.97;5011368;28;20428;-77
2021/09/03 06:51:28;;;;;;;11.00;5.65;;;;;;;12.34;97.83;96294.88;5011989;28;20423;-76
2021/09/03 06:53:53;;;;;;;9.10;5.53;;;;;;;12.15;99.44;96290.91;5011987;28;20451;-76
2021/09/03 06:56:18;;;;;;;8.43;6.50;;;;;;;12.04;100.00;96294.97;5011812;28;20420;-77
2021/09/03 06:58:44;;;;;;;9.00;6.43;;;;;;;12.04;100.00;96286.34;5011703;28;20477;-77
2021/09/03 07:01:09;;;;;;;9.68;5.95;;;;;;;12.31;100.00;96297.69;5010506;28;20416;-76
2021/09/03 07:03:36;;;;;;;7.17;6.20;;;;;;;12.59;100.00;96303.75;5010490;28;20447;-77
2021/09/03 07:06:01;;;;;;;7.00;5.90;;;;;;;12.77;99.72;96302.59;5011285;28;20515;-76
2021/09/03 07:08:27;;;;;;;10.87;6.77;;;;;;;12.61;98.65;96296.72;5010210;28;21033;-77
2021/09/03 07:10:52;;;;;;;14.00;6.60;;;;;;;12.72;99.93;96304.66;5011933;28;20424;-77
2021/09/03 07:13:17;;;;;;;8.60;6.10;;;;;;;12.70;100.00;96301.31;5010284;28;20471;-76
2021/09/03 07:15:43;;;;;;;11.90;6.55;;;;;;;13.08;99.05;96306.66;5010729;28;20408;-76
2021/09/03 07:20:45;;;;;;;12.48;6.10;;;;;;;13.06;97.54;96307.72;5047796;22;20484;-76
2021/09/03 07:23:10;;;;;;;7.43;6.30;;;;;;;13.17;97.43;96301.84;5011638;28;20500;-75
2021/09/03 07:25:36;;;;;;;7.43;6.37;;;;;;;13.22;97.62;96303.19;5011264;28;20503;-75
2021/09/03 07:28:01;;;;;;;12.43;7.03;;;;;;;13.30;97.05;96303.56;5026519;28;20457;-76
2021/09/03 07:30:27;;;;;;;9.73;7.10;;;;;;;13.38;97.61;96302.22;5011481;28;20412;-76
2021/09/03 07:32:52;;;;;;;8.37;7.57;;;;;;;13.73;96.86;96299.91;5011470;28;20427;-75
2021/09/03 07:35:18;;;;;;;10.93;8.03;;;;;;;13.84;96.06;96301.78;5009875;28;20429;-76
2021/09/03 07:37:45;;;;;;;9.18;7.55;;;;;;;14.00;95.83;96303.25;5009858;28;20409;-76
2021/09/03 07:40:11;;;;;;;9.40;6.90;;;;;;;14.27;96.13;96302.28;5011356;28;20416;-75
2021/09/03 07:42:37;;;;;;;11.68;6.88;;;;;;;14.45;95.76;96293.19;5011479;28;20432;-76
2021/09/03 07:45:03;;;;;;;8.90;7.13;;;;;;;15.10;95.00;96291.25;5011323;28;20409;-75
2021/09/03 07:47:29;;;;;;;9.73;6.80;;;;;;;15.51;88.30;96293.44;5009739;28;20418;-75
2021/09/03 07:49:55;;;;;;;8.32;7.10;;;;;;;15.71;88.06;96287.59;4995720;28;20434;-75
2021/09/03 07:52:20;;;;;;;11.18;7.80;;;;;;;15.59;86.55;96288.47;4993526;28;20422;-76
2021/09/03 07:54:47;;;;;;;11.10;7.78;;;;;;;15.66;87.89;96283.69;4992420;28;20493;-76
2021/09/03 07:57:12;;;;;;;9.80;7.53;;;;;;;16.03;89.02;96281.72;4991326;28;20497;-75
2021/09/03 07:59:38;;;;;;;10.07;7.87;;;;;;;16.55;87.77;96277.69;4991347;28;20509;-75
2021/09/03 08:02:04;;;;;;;7.70;6.90;;;;;;;17.08;83.84;96277.81;4990349;28;20422;-75
2021/09/03 08:04:30;;;;;;;10.47;7.87;;;;;;;17.39;80.56;96275.31;4990757;28;20462;-75
2021/09/03 08:06:55;;;;;;;8.63;7.40;;;;;;;17.13;80.56;96275.69;4989832;28;20422;-75
2021/09/03 08:09:21;;;;;;;8.10;7.30;;;;;;;17.04;81.54;96281.66;4991889;28;20422;-75
2021/09/03 08:11:48;;;;;;;9.23;7.77;;;;;;;16.70;81.79;96279.09;4991950;28;20478;-76
2021/09/03 08:14:13;;;;;;;9.43;7.70;;;;;;;16.56;81.93;96274.09;4991237;28;20812;-75
2021/09/03 08:16:39;;;;;;;13.00;8.47;;;;;;;16.46;83.06;96275.78;4993085;28;20422;-77
2021/09/03 08:19:04;;;;;;;11.60;8.47;;;;;;;16.69;82.36;96276.59;5001857;28;20423;-76
2021/09/03 08:21:30;;;;;;;9.57;7.60;;;;;;;16.95;81.31;96281.56;5010891;28;20911;-76
2021/09/03 08:23:56;;;;;;;9.93;8.35;;;;;;;16.76;79.37;96279.56;5010798;28;20425;-76
2021/09/03 08:26:21;;;;;;;10.93;8.57;;;;;;;16.95;78.83;96279.78;5009385;28;20482;-76
2021/09/03 08:28:48;;;;;;;9.57;7.65;;;;;;;16.95;80.22;96269.31;5011386;28;20417;-77
2021/09/03 08:31:13;;;;;;;10.02;8.02;;;;;;;17.03;79.84;96277.38;5009496;28;20428;-76
2021/09/03 08:33:39;;;;;;;8.83;7.93;;;;;;;17.11;80.02;96268.91;5009618;28;20475;-75
2021/09/03 08:36:05;;;;;;;9.40;7.57;;;;;;;17.39;79.08;96278.81;5010584;28;20842;-76
2021/09/03 08:38:30;;;;;;;10.05;7.72;;;;;;;17.64;78.83;96280.19;5010702;28;20791;-76
2021/09/03 08:40:57;;;;;;;10.70;8.13;;;;;;;17.53;78.30;96285.50;5009479;28;20475;-77
2021/09/03 08:43:22;;;;;;;8.13;7.18;;;;;;;17.87;75.87;96274.88;5011472;28;20424;-76
2021/09/03 08:45:49;;;;;;;7.72;6.90;;;;;;;17.66;77.71;96275.69;5010612;28;20416;-76
2021/09/03 08:48:18;;;;;;;9.45;7.50;;;;;;;17.99;76.61;96278.28;5009352;28;20413;-76
2021/09/03 08:50:43;;;;;;;12.80;8.32;;;;;;;17.77;78.20;96269.59;5010689;28;20436;-77
2021/09/03 08:53:09;;;;;;;11.90;8.50;;;;;;;17.79;78.25;96275.50;5009574;28;20459;-76
2021/09/03 08:55:34;;;;;;;8.15;7.28;;;;;;;18.06;77.29;96275.00;5010886;28;20417;-76
2021/09/03 08:57:59;;;;;;;12.27;8.30;;;;;;;17.95;77.46;96279.47;4999134;28;20441;-77
2021/09/03 09:00:27;;;;;;;8.90;7.43;;;;;;;18.21;76.55;96280.72;4990899;28;20415;-76
2021/09/03 09:03:00;;;;;;;10.77;7.40;;;;;;;18.11;77.69;96283.28;4991621;28;20424;-76
2021/09/03 09:05:48;;;;;;;11.55;7.93;;;;;;;17.99;78.54;96286.97;4991351;28;20415;-75
2021/09/03 09:08:14;;;;;;;9.40;7.80;;;;;;;18.10;78.53;96279.03;4989402;28;20953;-76
2021/09/03 09:10:45;;;;;;;10.88;7.53;;;;;;;18.33;77.10;96284.09;4990778;28;20512;-76
2021/09/03 09:13:13;;;;;;;9.35;7.15;;;;;;;18.38;76.29;96277.47;4990745;28;20920;-75
2021/09/03 09:15:39;;;;;;;11.07;7.40;;;;;;;18.35;78.13;96282.16;4992401;28;20441;-77
2021/09/03 09:18:05;;;;;;;8.77;7.87;;;;;;;18.62;75.85;96287.66;5008289;28;20919;-76
2021/09/03 09:20:33;;;;;;;9.77;7.78;;;;;;;18.38;77.29;96284.50;5014377;28;20439;-75
2021/09/03 09:23:00;;;;;;;9.20;7.70;;;;;;;18.62;76.19;96281.59;5012772;28;20435;-75
2021/09/03 09:25:28;;;;;;;10.27;7.80;;;;;;;19.28;76.88;96275.78;5013578;28;20417;-76
2021/09/03 09:27:55;;;;;;;10.07;8.05;;;;;;;19.58;72.54;96280.06;5012406;28;20427;-76
2021/09/03 09:30:23;;;;;;;10.75;8.13;;;;;;;19.61;70.65;96278.94;5012371;28;20425;-76
2021/09/03 09:33:15;;;;;;;9.52;8.25;;;;;;;19.14;73.62;96276.19;5013625;28;20814;-76
2021/09/03 09:35:43;;;;;;;10.38;8.02;;;;;;;19.22;73.16;96265.84;5013325;28;20440;-76
2021/09/03 09:38:09;;;;;;;8.68;7.50;;;;;;;19.91;72.81;96264.81;5013774;28;20466;-75
2021/09/03 09:40:43;;;;;;;7.83;7.03;;;;;;;20.33;76.18;96253.91;5012136;28;20424;-76
2021/09/03 09:43:22;;;;;;;10.80;8.32;;;;;;;20.90;71.82;96255.44;5012520;28;20527;-77
2021/09/03 09:46:08;;;;;;;8.05;7.05;;;;;;;21.05;69.80;96258.41;5012096;28;20829;-77
2021/09/03 09:48:53;;;;;;;8.98;6.97;;;;;;;21.46;67.84;96256.16;5012867;28;20432;-77
2021/09/03 09:51:20;;;;;;;10.73;7.57;;;;;;;20.92;65.58;96252.69;5013501;28;20429;-78
2021/09/03 09:53:52;;;;;;;10.68;7.22;;;;;;;21.29;64.89;96254.34;5013311;28;20417;-77
2021/09/03 09:56:17;;;;;;;9.15;7.57;;;;;;;21.22;64.01;96246.22;5013014;28;20475;-77
2021/09/03 09:58:44;;;;;;;7.07;6.47;;;;;;;21.09;64.97;96248.38;5013054;28;20914;-77
2021/09/03 10:01:09;;;;;;;10.30;7.75;;;;;;;20.74;66.08;96248.19;5013085;28;20499;-77
2021/09/03 10:03:36;;;;;;;8.87;7.17;;;;;;;21.39;68.32;96252.47;5012989;28;20500;-77
2021/09/03 10:06:02;;;;;;;7.90;7.10;;;;;;;21.70;67.36;96245.84;5012809;28;20448;-78
2021/09/03 10:08:27;;;;;;;7.78;6.97;;;;;;;21.67;67.11;96245.31;5012776;28;20965;-77
2021/09/03 10:10:53;;;;;;;9.30;7.23;;;;;;;21.93;65.51;96245.34;5012864;28;20413;-77
2021/09/03 10:13:18;;;;;;;7.83;6.50;;;;;;;22.08;63.83;96246.41;5011718;28;20838;-77
2021/09/03 10:15:44;;;;;;;9.20;7.07;;;;;;;22.59;61.89;96242.09;5012683;28;20519;-77
2021/09/03 10:18:10;;;;;;;9.07;7.70;;;;;;;22.66;60.45;96248.38;5011178;28;20421;-77
2021/09/03 10:20:37;;;;;;;9.95;7.00;;;;;;;22.79;59.56;96245.28;5011686;28;20429;-76
2021/09/03 10:23:03;;;;;;;8.88;6.80;;;;;;;22.80;65.03;96240.81;5013123;28;20420;-77
2021/09/03 10:25:28;;;;;;;7.77;6.83;;;;;;;23.05;61.06;96237.28;5010960;28;20423;-77
2021/09/03 10:28:05;;;;;;;8.97;6.83;;;;;;;22.93;60.81;96241.22;5010936;28;20784;-78
2021/09/03 10:30:31;;;;;;;10.00;6.90;;;;;;;23.10;60.43;96234.13;5013228;28;20843;-80
2021/09/03 10:33:09;;;;;;;6.67;5.70;;;;;;;22.66;61.63;96235.19;4995969;28;20434;-76
2021/09/03 10:35:34;;;;;;;7.93;6.23;;;;;;;22.96;62.06;96237.44;4992422;28;20468;-76
2021/09/03 10:38:30;;;;;;;8.13;6.70;;;;;;;22.62;60.81;96233.00;4992712;28;20426;-77
2021/09/03 10:40:58;;;;;;;8.90;6.83;;;;;;;22.46;63.45;96229.31;4992162;28;22432;-76
2021/09/03 10:43:38;;;;;;;10.68;7.35;;;;;;;22.42;62.90;96232.44;4991486;28;20422;-76
2021/09/03 10:46:05;;;;;;;8.20;7.32;;;;;;;22.53;66.51;96224.22;4992295;28;20418;-75
2021/09/03 10:48:32;;;;;;;11.77;7.35;;;;;;;22.52;61.92;96229.69;5009595;28;20977;-76
2021/09/03 10:50:59;;;;;;;9.35;7.38;;;;;;;22.61;65.51;96231.34;5010798;28;20778;-76
2021/09/03 10:53:31;;;;;;;9.25;8.35;;;;;;;22.39;63.61;96228.28;5010817;28;20923;-77
2021/09/03 10:56:04;;;;;;;9.83;8.60;;;;;;;22.37;61.22;96225.00;5013353;28;20433;-75
2021/09/03 10:58:41;;;;;;;9.63;8.02;;;;;;;22.50;61.20;96219.25;5006464;28;20476;-77
2021/09/03 11:01:33;;;;;;;8.82;7.45;;;;;;;22.80;65.34;96219.69;4996027;28;20832;-77
2021/09/03 11:04:01;;;;;;;8.20;6.30;;;;;;;22.93;62.63;96220.91;4994467;28;20453;-77
2021/09/03 11:06:29;;;;;;;11.50;6.83;;;;;;;22.78;61.65;96219.88;4991390;28;20418;-78
2021/09/03 11:08:58;;;;;;;10.48;7.25;;;;;;;22.91;64.08;96217.59;4992150;28;20947;-75
2021/09/03 11:11:24;;;;;;;10.30;7.68;;;;;;;22.69;59.52;96220.81;4992294;28;20434;-75
2021/09/03 11:13:51;;;;;;;7.35;6.57;;;;;;;22.55;62.48;96210.88;4990881;28;20841;-75
2021/09/03 11:16:33;;;;;;;7.30;6.60;;;;;;;22.81;63.96;96210.81;4991898;28;20453;-75
2021/09/03 11:19:00;;;;;;;8.52;6.28;;;;;;;22.70;63.21;96209.28;4992363;28;20415;-75
2021/09/03 11:21:29;;;;;;;8.75;6.60;;;;;;;22.66;60.44;96207.94;4991053;28;20418;-75
2021/09/03 11:23:56;;;;;;;11.52;6.68;;;;;;;22.78;62.64;96216.41;4992326;28;20485;-75
2021/09/03 11:26:21;;;;;;;8.47;6.30;;;;;;;22.87;59.33;96204.84;4991722;28;20984;-75
2021/09/03 11:28:47;;;;;;;8.73;6.97;;;;;;;22.76;60.56;96205.16;4991714;28;20429;-75